createdAt,value
2023-11-14T00:02:25.713Z,82.13
2023-11-14T00:05:13.559Z,82.03
2023-11-14T00:08:00.330Z,82.17
2023-11-14T00:10:47.944Z,82.53
2023-11-14T00:13:34.950Z,82.72
2023-11-14T00:16:22.080Z,82.61
2023-11-14T00:19:09.770Z,82.67
2023-11-14T00:21:56.229Z,82.84
2023-11-14T00:24:46.893Z,82.95
2023-11-14T00:27:33.672Z,83.04
2023-11-14T00:30:20.682Z,83.10
2023-11-14T00:33:08.074Z,83.24
2023-11-14T00:35:57.799Z,83.32
2023-11-14T00:38:44.812Z,83.38
2023-11-14T00:41:34.671Z,83.42
2023-11-14T00:44:23.377Z,83.25
2023-11-14T00:47:12.934Z,83.51
2023-11-14T00:49:59.597Z,83.47
2023-11-14T00:52:47.918Z,83.80
2023-11-14T00:55:35.331Z,83.75
2023-11-14T00:58:23.179Z,83.80
2023-11-14T01:01:09.972Z,83.60
2023-11-14T01:03:58.785Z,83.78
2023-11-14T01:06:45.852Z,83.96
2023-11-14T01:09:32.639Z,83.81
2023-11-14T01:12:19.461Z,84.00
2023-11-14T01:15:07.039Z,84.05
2023-11-14T01:17:53.496Z,84.04
2023-11-14T01:20:40.233Z,84.02
2023-11-14T01:23:27.434Z,83.88
2023-11-14T01:26:14.427Z,84.04
2023-11-14T01:29:01.439Z,84.08
2023-11-14T01:31:49.484Z,83.96
2023-11-14T01:34:36.678Z,83.97
2023-11-14T01:37:24.402Z,84.16
2023-11-14T01:40:11.801Z,84.16
2023-11-14T01:43:04.672Z,84.44
2023-11-14T01:45:52.703Z,84.54
2023-11-14T01:48:39.822Z,84.82
2023-11-14T01:51:27.143Z,84.67
2023-11-14T01:54:15.949Z,84.65
2023-11-14T01:57:03.328Z,84.49
2023-11-14T01:59:50.843Z,84.55
2023-11-14T02:02:37.705Z,84.27
2023-11-14T02:05:24.817Z,84.72
2023-11-14T02:08:11.958Z,84.81
2023-11-14T02:10:59.742Z,84.78
2023-11-14T02:13:46.859Z,84.98
2023-11-14T02:16:54.442Z,84.82
2023-11-14T02:19:42.290Z,85.10
2023-11-14T02:22:31.979Z,84.91
2023-11-14T02:25:20.132Z,85.08
2023-11-14T02:28:07.689Z,84.84
2023-11-14T02:30:55.082Z,84.95
2023-11-14T02:33:42.054Z,85.19
2023-11-14T02:36:31.890Z,84.94
2023-11-14T02:39:18.839Z,84.97
2023-11-14T02:42:06.652Z,85.18
2023-11-14T02:44:53.979Z,85.00
2023-11-14T02:47:41.310Z,85.18
2023-11-14T02:50:30.757Z,85.21
2023-11-14T02:53:17.382Z,85.49
2023-11-14T02:56:05.870Z,85.58
2023-11-14T02:58:52.225Z,85.64
2023-11-14T03:01:39.636Z,85.72
2023-11-14T03:04:26.466Z,86.06
2023-11-14T03:07:13.284Z,87.06
2023-11-14T03:10:00.700Z,87.14
2023-11-14T03:12:47.538Z,88.27
2023-11-14T03:15:34.432Z,87.44
2023-11-14T03:18:21.267Z,88.15
2023-11-14T03:21:07.740Z,87.98
2023-11-14T03:23:54.600Z,88.03
2023-11-14T03:26:41.488Z,88.01
2023-11-14T03:29:27.789Z,88.06
2023-11-14T03:32:14.884Z,88.46
2023-11-14T03:35:06.748Z,88.74
2023-11-14T03:37:54.587Z,88.53
2023-11-14T03:40:41.108Z,89.09
2023-11-14T03:43:27.989Z,88.83
2023-11-14T03:46:14.939Z,88.89
2023-11-14T03:49:02.015Z,88.85
2023-11-14T03:51:49.088Z,88.68
2023-11-14T03:54:37.981Z,88.57
2023-11-14T03:57:24.614Z,89.26
2023-11-14T04:00:12.577Z,89.18
2023-11-14T04:03:02.698Z,89.49
2023-11-14T04:05:50.946Z,89.46
2023-11-14T04:08:38.873Z,89.03
2023-11-14T04:11:25.216Z,89.23
2023-11-14T04:14:11.998Z,89.39
2023-11-14T04:16:58.963Z,89.53
2023-11-14T04:19:46.142Z,89.62
2023-11-14T04:22:33.136Z,89.12
2023-11-14T04:25:19.878Z,89.93
2023-11-14T04:28:06.814Z,89.82
2023-11-14T04:30:53.913Z,89.08
2023-11-14T04:33:40.532Z,89.05
2023-11-14T04:36:27.564Z,88.83
2023-11-14T04:39:14.771Z,88.97
2023-11-14T04:42:02.318Z,89.06
2023-11-14T04:44:52.949Z,89.18
2023-11-14T04:47:40.011Z,89.33
2023-11-14T04:50:26.639Z,88.99
2023-11-14T04:53:13.148Z,89.47
2023-11-14T04:55:59.921Z,89.71
2023-11-14T04:58:46.826Z,90.05
2023-11-14T05:01:34.175Z,89.29
2023-11-14T05:04:20.869Z,89.51
2023-11-14T05:07:07.414Z,89.77
2023-11-14T05:09:54.328Z,89.17
2023-11-14T05:12:41.293Z,89.15
2023-11-14T05:15:27.800Z,89.23
2023-11-14T05:18:14.546Z,89.70
2023-11-14T05:21:01.465Z,89.71
2023-11-14T05:23:47.957Z,89.03
2023-11-14T05:26:34.483Z,89.20
2023-11-14T05:29:21.457Z,89.43
2023-11-14T05:32:10.696Z,89.44
2023-11-14T05:34:57.301Z,89.51
2023-11-14T05:37:45.633Z,89.38
2023-11-14T05:40:32.899Z,89.59
2023-11-14T05:43:20.580Z,89.18
2023-11-14T05:46:07.741Z,89.34
2023-11-14T05:48:55.041Z,89.12
2023-11-14T05:51:42.571Z,89.02
2023-11-14T05:54:29.088Z,89.09
2023-11-14T05:57:17.891Z,89.05
2023-11-14T06:00:06.175Z,89.13
2023-11-14T06:02:58.625Z,88.91
2023-11-14T06:05:45.304Z,88.78
2023-11-14T06:08:32.400Z,88.91
2023-11-14T06:11:19.148Z,88.90
2023-11-14T06:14:05.994Z,89.12
2023-11-14T06:16:52.965Z,88.52
2023-11-14T06:19:39.749Z,88.43
2023-11-14T06:22:26.680Z,88.66
2023-11-14T06:25:13.538Z,88.62
2023-11-14T06:28:00.216Z,88.32
2023-11-14T06:30:46.688Z,88.26
2023-11-14T06:33:34.389Z,88.25
2023-11-14T06:36:22.010Z,88.01
2023-11-14T06:39:08.672Z,87.97
2023-11-14T06:41:55.714Z,88.02
2023-11-14T06:44:46.031Z,88.06
2023-11-14T06:47:33.210Z,88.23
2023-11-14T06:50:29.598Z,87.94
2023-11-14T06:53:24.198Z,87.89
2023-11-14T06:56:15.196Z,87.66
2023-11-14T06:59:01.870Z,87.80
2023-11-14T07:01:53.763Z,87.36
2023-11-14T07:04:41.113Z,87.42
2023-11-14T07:07:28.125Z,87.65
2023-11-14T07:10:15.476Z,87.56
2023-11-14T07:13:03.659Z,87.06
2023-11-14T07:15:50.238Z,86.92
2023-11-14T07:18:38.782Z,87.08
2023-11-14T07:21:25.444Z,87.35
2023-11-14T07:24:12.717Z,87.16
2023-11-14T07:26:59.678Z,86.95
2023-11-14T07:29:47.307Z,86.70
2023-11-14T07:32:34.422Z,86.83
2023-11-14T07:35:22.825Z,86.27
2023-11-14T07:38:09.858Z,86.38
2023-11-14T07:40:56.399Z,86.02
2023-11-14T07:43:42.847Z,85.94
2023-11-14T07:46:29.609Z,86.16
2023-11-14T07:49:16.616Z,85.61
2023-11-14T07:52:03.123Z,85.56
2023-11-14T07:54:50.938Z,85.59
2023-11-14T07:57:37.687Z,85.31
2023-11-14T08:00:25.416Z,85.07
2023-11-14T08:03:12.401Z,84.87
2023-11-14T08:05:59.055Z,84.83
2023-11-14T08:08:45.950Z,84.72
2023-11-14T08:11:39.663Z,84.65
2023-11-14T08:14:26.267Z,84.42
2023-11-14T08:17:12.943Z,83.87
2023-11-14T08:20:00.550Z,83.45
2023-11-14T08:22:47.390Z,83.36
2023-11-14T08:25:34.395Z,82.47
2023-11-14T08:28:21.516Z,82.53
2023-11-14T08:31:08.349Z,81.98
2023-11-14T08:33:56.511Z,82.23
2023-11-14T08:36:44.242Z,81.54
2023-11-14T08:39:31.062Z,80.31
2023-11-14T08:42:18.706Z,80.28
2023-11-14T08:45:05.936Z,81.04
2023-11-14T08:47:52.369Z,79.42
2023-11-14T08:50:40.667Z,79.37
2023-11-14T08:53:27.211Z,78.80
2023-11-14T08:56:14.000Z,79.44
2023-11-14T08:59:01.075Z,78.93
2023-11-14T09:01:49.095Z,78.37
2023-11-14T09:04:35.833Z,77.82
2023-11-14T09:07:22.455Z,78.18
2023-11-14T09:10:09.786Z,77.86
2023-11-14T09:12:57.890Z,77.82
2023-11-14T09:15:44.673Z,78.75
2023-11-14T09:18:33.561Z,77.64
2023-11-14T09:21:21.160Z,76.90
2023-11-14T09:24:11.113Z,76.60
2023-11-14T09:26:58.276Z,77.61
2023-11-14T09:29:44.766Z,77.48
2023-11-14T09:32:32.093Z,77.63
2023-11-14T09:35:19.375Z,77.37
2023-11-14T09:38:06.712Z,77.19
2023-11-14T09:40:54.725Z,78.15
2023-11-14T09:43:42.115Z,76.48
2023-11-14T09:46:32.706Z,76.63
2023-11-14T09:49:19.757Z,76.17
2023-11-14T09:52:07.128Z,76.30
2023-11-14T09:54:54.160Z,75.50
2023-11-14T09:57:41.144Z,76.01
2023-11-14T10:00:29.845Z,76.88
2023-11-14T10:03:17.630Z,77.45
2023-11-14T10:06:05.170Z,77.24
2023-11-14T10:08:58.331Z,77.89
2023-11-14T10:12:12.024Z,78.72
2023-11-14T10:14:55.307Z,79.26
2023-11-14T10:17:49.290Z,79.59
2023-11-14T10:23:40.237Z,80.45
2023-11-14T10:26:28.483Z,81.14
2023-11-14T10:29:19.148Z,81.69
2023-11-14T10:32:13.002Z,81.97
2023-11-14T10:35:18.024Z,82.45
2023-11-14T10:38:19.846Z,82.71
2023-11-14T10:41:07.346Z,83.03
2023-11-14T10:43:54.467Z,83.30
2023-11-14T10:46:54.072Z,83.36
2023-11-14T10:49:47.267Z,83.16
2023-11-14T10:52:37.209Z,83.50
2023-11-14T10:55:25.563Z,82.98
2023-11-14T10:58:14.717Z,82.77
2023-11-14T11:01:04.237Z,82.67
2023-11-14T11:03:54.571Z,82.91
2023-11-14T11:06:41.888Z,82.75
2023-11-14T11:09:28.720Z,82.85
2023-11-14T11:12:16.408Z,83.00
2023-11-14T11:15:04.078Z,83.20
2023-11-14T11:17:59.643Z,82.84
2023-11-14T11:20:46.248Z,82.87
2023-11-14T11:24:30.107Z,82.69
2023-11-14T11:27:26.483Z,82.14
2023-11-14T11:30:14.661Z,81.81
2023-11-14T11:33:34.398Z,81.91
2023-11-14T11:36:24.937Z,81.30
2023-11-14T11:39:12.020Z,81.22
2023-11-14T11:42:00.543Z,80.32
2023-11-14T11:44:47.134Z,79.82
2023-11-14T11:47:38.374Z,80.25
2023-11-14T11:50:34.316Z,80.00
2023-11-14T11:53:41.677Z,80.29
2023-11-14T11:56:37.437Z,80.95
2023-11-14T11:59:25.656Z,81.02
2023-11-14T12:02:14.666Z,81.00
2023-11-14T12:05:03.401Z,81.07
2023-11-14T12:07:50.667Z,80.91
2023-11-14T12:10:37.701Z,81.06
2023-11-14T12:13:28.519Z,81.44
2023-11-14T12:16:15.585Z,82.15
2023-11-14T12:19:03.185Z,82.15
2023-11-14T12:21:50.765Z,82.57
2023-11-14T12:24:37.796Z,83.15
2023-11-14T12:27:24.438Z,83.57
2023-11-14T12:30:14.287Z,84.36
2023-11-14T12:33:08.540Z,84.66
2023-11-14T12:35:58.946Z,84.97
2023-11-14T12:38:45.832Z,85.38
2023-11-14T12:41:33.525Z,85.76
2023-11-14T12:44:20.590Z,85.60
2023-11-14T12:47:12.066Z,86.34
2023-11-14T12:49:58.681Z,85.94
2023-11-14T12:52:45.354Z,86.79
2023-11-14T12:55:31.871Z,87.20
2023-11-14T12:58:18.541Z,86.98
2023-11-14T13:01:04.866Z,87.33
2023-11-14T13:03:51.658Z,87.33
2023-11-14T13:06:39.700Z,87.01
2023-11-14T13:09:27.828Z,87.08
2023-11-14T13:12:14.893Z,87.08
2023-11-14T13:15:01.602Z,87.49
2023-11-14T13:17:48.933Z,87.48
2023-11-14T13:20:35.617Z,87.89
2023-11-14T13:23:23.114Z,87.63
2023-11-14T13:26:11.200Z,87.76
2023-11-14T13:28:58.032Z,87.51
2023-11-14T13:31:44.873Z,87.91
2023-11-14T13:34:36.311Z,88.13
2023-11-14T13:37:23.663Z,88.40
2023-11-14T13:40:12.558Z,88.35
2023-11-14T13:42:59.221Z,88.39
2023-11-14T13:45:46.580Z,88.52
2023-11-14T13:48:34.731Z,88.86
2023-11-14T13:51:21.577Z,88.94
2023-11-14T13:54:11.006Z,88.93
2023-11-14T13:56:58.834Z,89.01
2023-11-14T13:59:46.822Z,88.71
2023-11-14T14:02:36.129Z,89.12
2023-11-14T14:05:22.795Z,89.59
2023-11-14T14:08:10.845Z,89.95
2023-11-14T14:10:57.896Z,90.06
2023-11-14T14:13:44.466Z,90.42
2023-11-14T14:16:30.877Z,90.53
2023-11-14T14:19:18.646Z,90.59
2023-11-14T14:22:06.262Z,90.59
2023-11-14T14:24:52.753Z,90.18
2023-11-14T14:27:39.214Z,90.60
2023-11-14T14:30:26.380Z,90.63
2023-11-14T14:33:13.105Z,90.71
2023-11-14T14:35:59.788Z,90.66
2023-11-14T14:38:47.886Z,90.78
2023-11-14T14:41:37.963Z,90.80
2023-11-14T14:44:27.464Z,90.43
2023-11-14T14:47:15.159Z,90.71
2023-11-14T14:50:06.209Z,90.90
2023-11-14T14:52:54.906Z,90.41
2023-11-14T14:55:41.460Z,91.04
2023-11-14T14:58:27.848Z,90.60
2023-11-14T15:01:15.358Z,90.42
2023-11-14T15:04:02.363Z,90.78
2023-11-14T15:06:49.113Z,90.69
2023-11-14T15:09:35.951Z,91.28
2023-11-14T15:12:23.427Z,91.04
2023-11-14T15:15:12.057Z,90.67
2023-11-14T15:17:59.962Z,91.15
2023-11-14T15:20:47.872Z,90.90
2023-11-14T15:23:34.592Z,90.78
2023-11-14T15:26:23.556Z,90.71
2023-11-14T15:29:10.894Z,90.98
2023-11-14T15:31:58.125Z,91.28
2023-11-14T15:34:44.677Z,91.44
2023-11-14T15:37:30.965Z,91.54
2023-11-14T15:40:19.337Z,91.85
2023-11-14T15:43:06.448Z,91.82
2023-11-14T15:45:53.268Z,91.77
2023-11-14T15:48:39.910Z,91.86
2023-11-14T15:51:26.895Z,91.73
2023-11-14T15:54:13.662Z,91.74
2023-11-14T15:57:00.488Z,91.55
2023-11-14T15:59:48.249Z,91.40
2023-11-14T16:02:34.835Z,91.41
2023-11-14T16:05:21.572Z,91.53
2023-11-14T16:08:08.884Z,91.63
2023-11-14T16:10:58.619Z,91.97
2023-11-14T16:13:45.383Z,92.21
2023-11-14T16:16:32.532Z,92.18
2023-11-14T16:19:22.751Z,91.78
2023-11-14T16:22:09.666Z,92.00
2023-11-14T16:24:56.628Z,92.17
2023-11-14T16:27:43.647Z,91.81
2023-11-14T16:30:30.842Z,92.22
2023-11-14T16:33:17.470Z,92.29
2023-11-14T16:36:05.392Z,92.09
2023-11-14T16:38:52.176Z,91.18
2023-11-14T16:41:39.038Z,90.87
2023-11-14T16:44:26.505Z,90.92
2023-11-14T16:47:13.713Z,91.16
2023-11-14T16:50:00.622Z,91.26
2023-11-14T16:52:48.059Z,91.00
2023-11-14T16:55:38.528Z,91.39
2023-11-14T16:58:25.319Z,91.70
2023-11-14T17:01:13.303Z,91.67
2023-11-14T17:04:01.825Z,91.89
2023-11-14T17:06:49.663Z,91.96
2023-11-14T17:09:36.155Z,92.38
2023-11-14T17:12:22.875Z,92.49
2023-11-14T17:15:10.334Z,91.93
2023-11-14T17:17:57.051Z,92.14
2023-11-14T17:20:43.701Z,92.52
2023-11-14T17:23:30.625Z,92.97
2023-11-14T17:26:21.308Z,92.99
2023-11-14T17:29:09.872Z,92.87
2023-11-14T17:32:00.648Z,93.03
2023-11-14T17:34:48.437Z,92.78
2023-11-14T17:37:37.246Z,92.85
2023-11-14T17:40:23.569Z,92.87
2023-11-14T17:43:10.362Z,92.81
2023-11-14T17:45:57.009Z,92.70
2023-11-14T17:48:44.578Z,92.57
2023-11-14T17:51:38.430Z,92.47
2023-11-14T17:54:26.569Z,92.64
2023-11-14T17:57:14.445Z,92.52
2023-11-14T18:00:01.310Z,92.38
2023-11-14T18:02:48.618Z,92.36
2023-11-14T18:05:35.664Z,92.23
2023-11-14T18:08:22.794Z,91.67
2023-11-14T18:11:09.685Z,91.53
2023-11-14T18:13:56.509Z,91.16
2023-11-14T18:16:44.076Z,90.87
2023-11-14T18:19:31.009Z,90.72
2023-11-14T18:22:17.846Z,90.92
2023-11-14T18:25:05.574Z,91.13
2023-11-14T18:27:52.023Z,90.66
2023-11-14T18:30:38.891Z,90.61
2023-11-14T18:33:25.506Z,90.53
2023-11-14T18:36:12.587Z,90.19
2023-11-14T18:38:59.425Z,90.19
2023-11-14T18:41:46.450Z,90.08
2023-11-14T18:44:34.368Z,90.51
2023-11-14T18:47:22.289Z,90.34
2023-11-14T18:50:10.439Z,90.79
2023-11-14T18:52:57.221Z,90.63
2023-11-14T18:55:45.711Z,90.30
2023-11-14T18:58:32.217Z,90.54
2023-11-14T19:01:23.068Z,90.32
2023-11-14T19:04:10.072Z,90.12
2023-11-14T19:06:56.942Z,90.39
2023-11-14T19:09:45.018Z,90.26
2023-11-14T19:12:31.503Z,90.19
2023-11-14T19:15:18.659Z,90.29
2023-11-14T19:18:05.549Z,90.61
2023-11-14T19:21:21.435Z,90.39
2023-11-14T19:24:00.048Z,90.87
2023-11-14T19:26:47.888Z,90.54
2023-11-14T19:29:34.483Z,90.77
2023-11-14T19:32:21.055Z,90.81
2023-11-14T19:35:08.165Z,91.49
2023-11-14T19:37:55.142Z,91.34
2023-11-14T19:40:41.712Z,91.64
2023-11-14T19:43:30.000Z,91.50
2023-11-14T19:46:16.615Z,91.63
2023-11-14T19:49:03.489Z,91.71
2023-11-14T19:51:54.734Z,91.69
2023-11-14T19:54:45.477Z,91.85
2023-11-14T19:57:33.032Z,91.80
2023-11-14T20:00:22.762Z,92.04
2023-11-14T20:03:09.546Z,92.22
2023-11-14T20:05:56.478Z,92.17
2023-11-14T20:08:43.436Z,92.26
2023-11-14T20:11:30.760Z,92.12
2023-11-14T20:14:19.026Z,92.32
2023-11-14T20:17:07.392Z,92.46
2023-11-14T20:19:57.098Z,92.37
2023-11-14T20:22:44.191Z,92.18
2023-11-14T20:25:31.206Z,92.70
2023-11-14T20:28:18.581Z,92.59
2023-11-14T20:31:05.698Z,92.78
2023-11-14T20:33:52.492Z,92.67
2023-11-14T20:36:39.101Z,92.57
2023-11-14T20:39:25.971Z,92.46
2023-11-14T20:42:12.568Z,92.30
2023-11-14T20:44:59.204Z,92.41
2023-11-14T20:47:46.297Z,92.70
2023-11-14T20:50:33.290Z,92.47
2023-11-14T20:53:19.793Z,92.38
2023-11-14T20:56:07.298Z,92.33
2023-11-14T20:58:54.802Z,92.28
2023-11-14T21:01:41.333Z,92.55
2023-11-14T21:04:29.012Z,92.15
2023-11-14T21:07:18.106Z,92.39
2023-11-14T21:10:05.391Z,92.67
2023-11-14T21:12:52.028Z,92.47
2023-11-14T21:15:39.077Z,92.29
2023-11-14T21:18:25.839Z,92.40
2023-11-14T21:21:12.763Z,92.22
2023-11-14T21:24:00.089Z,92.49
2023-11-14T21:26:46.758Z,92.05
2023-11-14T21:29:33.758Z,92.38
2023-11-14T21:32:20.991Z,92.37
2023-11-14T21:35:09.332Z,92.36
2023-11-14T21:37:55.829Z,92.01
2023-11-14T21:40:42.995Z,91.98
2023-11-14T21:43:30.641Z,92.42
2023-11-14T21:46:17.294Z,92.21
2023-11-14T21:49:06.267Z,91.96
2023-11-14T21:51:53.457Z,92.04
2023-11-14T21:54:40.197Z,92.02
2023-11-14T21:57:26.760Z,91.93
2023-11-14T22:00:14.974Z,91.92
2023-11-14T22:03:01.571Z,92.37
2023-11-14T22:05:50.752Z,91.91
2023-11-14T22:08:37.678Z,91.68
2023-11-14T22:11:24.450Z,91.86
2023-11-14T22:14:12.069Z,91.95
2023-11-14T22:16:58.868Z,91.70
2023-11-14T22:19:46.627Z,91.75
2023-11-14T22:22:33.268Z,91.71
2023-11-14T22:25:19.995Z,91.57
2023-11-14T22:28:06.461Z,91.36
2023-11-14T22:30:53.398Z,91.73
2023-11-14T22:33:39.873Z,91.87
2023-11-14T22:36:26.864Z,91.73
2023-11-14T22:39:16.263Z,91.65
2023-11-14T22:42:05.326Z,91.81
2023-11-14T22:44:52.056Z,91.77
2023-11-14T22:47:39.305Z,91.57
2023-11-14T22:50:26.018Z,91.24
2023-11-14T22:53:13.366Z,91.39
2023-11-14T22:56:00.255Z,91.35
2023-11-14T22:58:47.752Z,90.85
2023-11-14T23:01:38.318Z,90.95
2023-11-14T23:04:26.633Z,91.02
2023-11-14T23:07:13.597Z,91.06
2023-11-14T23:10:00.578Z,90.76
2023-11-14T23:12:47.517Z,90.93
2023-11-14T23:15:34.069Z,90.86
2023-11-14T23:18:21.386Z,91.10
2023-11-14T23:21:08.444Z,90.54
2023-11-14T23:23:55.183Z,90.52
2023-11-14T23:26:42.900Z,90.76
2023-11-14T23:29:29.616Z,90.41
2023-11-14T23:32:16.436Z,90.26
2023-11-14T23:35:03.722Z,90.30
2023-11-14T23:37:50.232Z,89.41
2023-11-14T23:40:37.468Z,90.38
2023-11-14T23:43:24.255Z,90.16
2023-11-14T23:46:11.629Z,89.98
2023-11-14T23:48:58.406Z,90.29
2023-11-14T23:51:45.085Z,90.13
2023-11-14T23:54:32.614Z,90.38
2023-11-14T23:57:19.613Z,90.05
